Aeroporto :
LOGIN :

Iscrizione | Disclaimer

   EN    FR    IT 

 










Sommario :    VFR   VFR Marginale   IFR   IFR Intensivo   IFR Molto Intensivo
Visibilità : 
Base nubi : 
>= 8 km
>= 3000ft
5 / 8 km
1000 / 3000 ft
1500m / 5 km
500 / 1000 ft
800 / 1500m
200 / 500 ft
< 800m
< 200 ft
Simboli :   Temporali  Nebbia  Neve Forte  Precipitazioni Forti  Vento > 20 kt
SIGMETs :   Varie  Temporali  Ghiacco  Turbolenza  Onda orograficha  Ceneri Vulcaniche







- Altitudine del aeroporto : 204 ft
- Codice IATA : AGF
- Carte del aeroporto


LFBA - Agen

ULTIMO METAR :
  • 200730Z AUTO 30004KT 270V330 9999 FEW014/// OVC062/// ///CB 18/15 Q1017 TEMPO SHRA BECMG BKN035

METARs OBSOLETI :
  • 200700Z AUTO 30005KT 9999 FEW014/// BKN060/// BKN074/// ///CB 17/15 Q1017 TEMPO SHRA BKN014 BKN030TCU
  • 200630Z AUTO 30004KT 270V330 9999 ///CB 17/15 Q1017 TEMPO SHRA BKN014 BKN030TCU
  • 200600Z AUTO 29004KT 9999 FEW014/// OVC060/// ///TCU 17/15 Q1017 TEMPO SHRA BKN014 BKN030TCU
  • 200530Z AUTO 29005KT 9999 FEW014/// OVC058/// ///TCU 17/15 Q1017 TEMPO SHRA BKN014 BKN030TCU
  • 200500Z AUTO 29005KT 9999 FEW020/// OVC058/// ///TCU 17/15 Q1016

TAF TAF LFBA
Valido dal 20 a 06 ore il 20 a 15 ore UTC


200500Z 2006/2015 31006KT 9999 BKN035
PROB30
TEMPO 2006/2009 SHRA BKN014 BKN030TCU
Nessun NOTAM noto per questo aeroporto.



MetMap, La meteo Aeronautica in un colpo d'occhio ! - Copyright ORBIFLY Dicembre 2007 - Disclaimer

ORBIFLY MET'MAP TEAM :

Programmazione e sviluppo : Alexandra Zaïnal
Concezione e sviluppo : Baudouin d'Aumeries
Co-Programmazione e sviluppo : Marc-Olivier Méhu
Supporto tecnico e logistico : Manuel Goepfert
Aiuto per la traduzione : Arnaldo La Scala

Contatto : metmap@orbifly.com




FONTI E CREDITI :

   NOAA